createdAt,value
2018-07-25T00:00:39.830Z,25.00
2018-07-25T00:02:41.967Z,24.80
2018-07-25T00:04:44.106Z,24.70
2018-07-25T00:06:46.349Z,24.90
2018-07-25T00:08:48.519Z,24.70
2018-07-25T00:10:54.396Z,24.50
2018-07-25T00:12:56.522Z,24.50
2018-07-25T00:14:58.642Z,24.30
2018-07-25T00:17:00.756Z,24.30
2018-07-25T00:19:02.941Z,24.40
2018-07-25T00:21:05.070Z,24.30
2018-07-25T00:23:07.227Z,24.30
2018-07-25T00:25:09.417Z,24.30
2018-07-25T00:27:11.546Z,24.40
2018-07-25T00:29:13.817Z,24.50
2018-07-25T00:31:16.043Z,24.40
2018-07-25T00:33:18.161Z,24.40
2018-07-25T00:35:20.282Z,24.40
2018-07-25T00:37:22.502Z,24.40
2018-07-25T00:39:24.617Z,24.40
2018-07-25T00:41:26.726Z,24.30
2018-07-25T00:43:29.020Z,24.20
2018-07-25T00:45:31.176Z,24.10
2018-07-25T00:47:33.298Z,24.10
2018-07-25T00:49:35.426Z,24.20
2018-07-25T00:51:37.558Z,24.20
2018-07-25T00:53:39.699Z,24.30
2018-07-25T00:55:41.818Z,24.20
2018-07-25T00:57:43.974Z,24.10
2018-07-25T00:59:46.258Z,24.00
2018-07-25T01:01:48.451Z,24.10
2018-07-25T01:03:50.598Z,24.10
2018-07-25T01:05:52.738Z,24.20
2018-07-25T01:07:54.875Z,24.10
2018-07-25T01:09:57.034Z,24.10
2018-07-25T01:11:59.137Z,23.90
2018-07-25T01:14:01.222Z,23.90
2018-07-25T01:16:03.329Z,23.90
2018-07-25T01:18:05.585Z,24.00
2018-07-25T01:20:07.990Z,24.10
2018-07-25T01:22:10.118Z,24.10
2018-07-25T01:24:12.246Z,24.20
2018-07-25T01:26:14.338Z,24.10
2018-07-25T01:28:16.462Z,24.10
2018-07-25T01:30:18.616Z,24.00
2018-07-25T01:32:20.734Z,24.00
2018-07-25T01:34:22.838Z,24.20
2018-07-25T01:36:24.950Z,24.30
2018-07-25T01:38:27.096Z,24.50
2018-07-25T01:40:29.249Z,24.40
2018-07-25T01:42:31.349Z,24.50
2018-07-25T01:44:33.489Z,24.50
2018-07-25T01:46:35.584Z,24.50
2018-07-25T01:48:37.722Z,24.50
2018-07-25T01:50:39.833Z,24.30
2018-07-25T01:52:41.934Z,24.30
2018-07-25T01:54:44.046Z,24.20
2018-07-25T01:56:46.162Z,24.40
2018-07-25T01:58:48.278Z,24.40
2018-07-25T02:00:50.401Z,24.40
2018-07-25T02:02:52.521Z,24.30
2018-07-25T02:04:54.678Z,24.40
2018-07-25T02:06:56.820Z,24.50
2018-07-25T02:08:58.978Z,24.50
2018-07-25T02:11:01.094Z,24.50
2018-07-25T02:13:03.258Z,24.50
2018-07-25T02:15:06.595Z,24.60
2018-07-25T02:17:08.789Z,24.50
2018-07-25T02:19:10.886Z,24.50
2018-07-25T02:21:13.035Z,24.40
2018-07-25T02:23:15.156Z,24.40
2018-07-25T02:25:17.298Z,24.30
2018-07-25T02:27:19.415Z,24.30
2018-07-25T02:29:21.538Z,24.30
2018-07-25T02:31:23.654Z,24.30
2018-07-25T02:33:31.470Z,24.30
2018-07-25T02:35:33.611Z,24.30
2018-07-25T02:37:35.728Z,24.40
2018-07-25T02:39:37.880Z,24.30
2018-07-25T02:41:40.719Z,24.30
2018-07-25T02:43:42.918Z,24.30
2018-07-25T02:45:45.131Z,24.30
2018-07-25T02:47:47.302Z,24.30
2018-07-25T02:49:49.471Z,24.30
2018-07-25T02:51:51.611Z,24.20
2018-07-25T02:53:53.752Z,24.30
2018-07-25T02:55:55.955Z,24.20
2018-07-25T02:57:58.076Z,24.30
2018-07-25T03:00:00.222Z,24.40
2018-07-25T03:02:02.356Z,24.40
2018-07-25T03:04:04.474Z,24.40
2018-07-25T03:06:06.590Z,24.30
2018-07-25T03:08:08.704Z,24.30
2018-07-25T03:10:10.853Z,24.20
2018-07-25T03:12:12.974Z,24.30
2018-07-25T03:14:15.086Z,24.20
2018-07-25T03:16:17.181Z,24.10
2018-07-25T03:18:19.306Z,24.10
2018-07-25T03:20:21.438Z,24.10
2018-07-25T03:22:23.546Z,24.00
2018-07-25T03:24:25.659Z,24.10
2018-07-25T03:26:27.791Z,24.10
2018-07-25T03:28:30.122Z,24.00
2018-07-25T03:30:32.247Z,23.90
2018-07-25T03:32:34.399Z,23.90
2018-07-25T03:34:36.501Z,23.80
2018-07-25T03:36:38.665Z,23.60
2018-07-25T03:38:40.781Z,23.50
2018-07-25T03:40:42.975Z,23.40
2018-07-25T03:42:45.098Z,23.50
2018-07-25T03:44:47.261Z,23.50
2018-07-25T03:46:49.426Z,23.60
2018-07-25T03:48:51.542Z,23.70
2018-07-25T03:50:53.962Z,23.80
2018-07-25T03:52:56.860Z,23.70
2018-07-25T03:54:59.011Z,23.70
2018-07-25T03:57:01.167Z,23.70
2018-07-25T03:59:03.290Z,23.80
2018-07-25T04:01:05.838Z,23.90
2018-07-25T04:03:08.310Z,23.80
2018-07-25T04:05:10.483Z,23.90
2018-07-25T04:07:12.604Z,24.00
2018-07-25T04:09:14.747Z,23.90
2018-07-25T04:11:16.862Z,23.90
2018-07-25T04:13:19.021Z,24.00
2018-07-25T04:15:21.172Z,24.00
2018-07-25T04:17:23.339Z,24.00
2018-07-25T04:19:25.509Z,24.00
2018-07-25T04:21:27.638Z,24.00
2018-07-25T04:23:29.777Z,24.00
2018-07-25T04:25:31.978Z,24.00
2018-07-25T04:27:34.240Z,24.10
2018-07-25T04:29:36.350Z,24.00
2018-07-25T04:31:38.466Z,24.00
2018-07-25T04:33:40.587Z,24.00
2018-07-25T04:35:42.739Z,24.00
2018-07-25T04:37:44.854Z,24.00
2018-07-25T04:39:46.991Z,24.10
2018-07-25T04:41:49.131Z,24.10
2018-07-25T04:43:52.078Z,24.20
2018-07-25T04:45:54.167Z,24.30
2018-07-25T04:47:56.285Z,24.50
2018-07-25T04:49:58.421Z,24.40
2018-07-25T04:52:00.879Z,24.30
2018-07-25T04:54:03.003Z,24.40
2018-07-25T04:56:05.402Z,24.40
2018-07-25T04:58:07.581Z,24.40
2018-07-25T05:00:09.719Z,24.40
2018-07-25T05:02:11.832Z,24.50
2018-07-25T05:04:13.954Z,24.50
2018-07-25T05:06:16.082Z,24.50
2018-07-25T05:08:18.182Z,24.50
2018-07-25T05:10:20.286Z,24.60
2018-07-25T05:12:22.439Z,24.70
2018-07-25T05:14:25.075Z,24.70
2018-07-25T05:16:27.198Z,24.80
2018-07-25T05:18:29.325Z,24.80
2018-07-25T05:20:31.577Z,24.80
2018-07-25T05:22:33.740Z,24.80
2018-07-25T05:24:36.127Z,24.70
2018-07-25T05:26:38.265Z,24.70
2018-07-25T05:28:40.539Z,24.60
2018-07-25T05:30:42.702Z,24.50
2018-07-25T05:32:44.815Z,24.50
2018-07-25T05:34:46.972Z,24.50
2018-07-25T05:36:49.318Z,24.60
2018-07-25T05:38:51.454Z,24.50
2018-07-25T05:40:53.597Z,24.60
2018-07-25T05:42:55.770Z,24.70
2018-07-25T05:44:57.955Z,24.80
2018-07-25T05:47:00.099Z,24.90
2018-07-25T05:49:02.418Z,24.90
2018-07-25T05:51:04.566Z,25.00
2018-07-25T05:53:06.720Z,25.10
2018-07-25T05:55:09.264Z,25.10
2018-07-25T05:57:11.442Z,25.10
2018-07-25T05:59:13.622Z,25.10
2018-07-25T06:01:15.785Z,25.10
2018-07-25T06:03:18.088Z,25.30
2018-07-25T06:05:20.138Z,25.30
2018-07-25T06:07:23.010Z,25.40
2018-07-25T06:09:25.146Z,25.70
2018-07-25T06:11:27.330Z,25.90
2018-07-25T06:13:29.699Z,26.00
2018-07-25T06:15:31.895Z,26.00
2018-07-25T06:17:34.070Z,26.10
2018-07-25T06:19:36.237Z,26.20
2018-07-25T06:21:38.400Z,26.20
2018-07-25T06:23:40.546Z,26.30
2018-07-25T06:25:42.718Z,26.30
2018-07-25T06:27:45.573Z,26.40
2018-07-25T06:29:47.729Z,26.40
2018-07-25T06:31:49.998Z,26.30
2018-07-25T06:33:52.151Z,26.40
2018-07-25T06:35:54.317Z,26.30
2018-07-25T06:37:56.517Z,26.30
2018-07-25T06:39:58.638Z,26.40
2018-07-25T06:42:00.811Z,26.40
2018-07-25T06:44:02.994Z,26.60
2018-07-25T06:46:05.213Z,26.60
2018-07-25T06:48:07.403Z,26.50
2018-07-25T06:50:09.542Z,26.70
2018-07-25T06:52:11.806Z,26.80
2018-07-25T06:54:13.934Z,26.90
2018-07-25T06:56:16.274Z,27.10
2018-07-25T06:58:18.394Z,27.20
2018-07-25T07:00:20.677Z,27.20
2018-07-25T07:02:23.106Z,27.30
2018-07-25T07:04:25.254Z,27.40
2018-07-25T07:06:27.424Z,27.40
2018-07-25T07:08:29.598Z,27.40
2018-07-25T07:10:31.793Z,27.40
2018-07-25T07:12:33.926Z,27.50
2018-07-25T07:14:36.067Z,27.70
2018-07-25T07:16:38.197Z,27.80
2018-07-25T07:18:40.362Z,27.90
2018-07-25T07:20:42.503Z,28.10
2018-07-25T07:22:44.679Z,28.20
2018-07-25T07:24:46.850Z,28.00
2018-07-25T07:26:48.994Z,28.00
2018-07-25T07:28:51.153Z,28.10
2018-07-25T07:30:53.331Z,28.30
2018-07-25T07:32:56.202Z,28.30
2018-07-25T07:34:58.385Z,28.30
2018-07-25T07:37:00.537Z,28.60
2018-07-25T07:39:04.662Z,28.80
2018-07-25T07:41:06.822Z,28.80
2018-07-25T07:43:08.970Z,28.70
2018-07-25T07:45:11.128Z,28.60
2018-07-25T07:47:13.299Z,28.70
2018-07-25T07:49:15.566Z,28.70
2018-07-25T07:51:17.706Z,28.90
2018-07-25T07:53:20.510Z,29.10
2018-07-25T07:55:22.930Z,29.10
2018-07-25T07:57:25.078Z,29.30
2018-07-25T07:59:27.535Z,29.40
2018-07-25T08:01:29.666Z,29.30
2018-07-25T08:03:31.793Z,29.30
2018-07-25T08:05:33.950Z,29.50
2018-07-25T08:07:36.119Z,29.70
2018-07-25T08:09:38.244Z,29.80
2018-07-25T08:11:40.420Z,29.80
2018-07-25T08:13:42.556Z,29.80
2018-07-25T08:15:44.704Z,30.00
2018-07-25T08:17:46.976Z,30.10
2018-07-25T08:19:49.029Z,30.20
2018-07-25T08:21:51.199Z,30.50
2018-07-25T08:23:53.351Z,30.40
2018-07-25T08:25:55.496Z,30.30
2018-07-25T08:27:57.657Z,30.20
2018-07-25T08:29:59.803Z,30.50
2018-07-25T08:32:01.950Z,30.50
2018-07-25T08:34:04.099Z,30.60
2018-07-25T08:36:06.268Z,30.80
2018-07-25T08:38:08.420Z,31.00
2018-07-25T08:40:10.618Z,31.10
2018-07-25T08:42:13.103Z,31.00
2018-07-25T08:44:15.242Z,30.80
2018-07-25T08:46:17.392Z,30.80
2018-07-25T08:48:19.560Z,30.90
2018-07-25T08:50:21.710Z,31.00
2018-07-25T08:52:23.888Z,31.10
2018-07-25T08:54:25.988Z,31.40
2018-07-25T08:56:28.113Z,31.30
2018-07-25T08:58:30.333Z,31.30
2018-07-25T09:00:32.555Z,31.60
2018-07-25T09:02:34.685Z,31.70
2018-07-25T09:04:37.038Z,31.60
2018-07-25T09:06:39.208Z,31.40
2018-07-25T09:08:41.483Z,31.30
2018-07-25T09:10:43.621Z,31.20
2018-07-25T09:12:46.360Z,31.30
2018-07-25T09:14:48.454Z,31.70
2018-07-25T09:16:50.668Z,32.00
2018-07-25T09:18:52.750Z,32.30
2018-07-25T09:20:54.942Z,32.20
2018-07-25T09:22:57.099Z,32.20
2018-07-25T09:24:59.706Z,31.90
2018-07-25T09:27:01.925Z,31.70
2018-07-25T09:29:04.111Z,31.90
2018-07-25T09:31:06.318Z,32.20
2018-07-25T09:33:08.477Z,32.40
2018-07-25T09:35:10.658Z,32.20
2018-07-25T09:37:12.846Z,32.30
2018-07-25T09:39:15.027Z,32.20
2018-07-25T09:41:17.218Z,32.30
2018-07-25T09:43:19.523Z,32.20
2018-07-25T09:45:22.548Z,32.50
2018-07-25T09:47:24.822Z,33.00
2018-07-25T09:49:26.994Z,32.90
2018-07-25T09:51:29.146Z,32.70
2018-07-25T09:53:31.464Z,32.60
2018-07-25T09:55:33.646Z,32.60
2018-07-25T09:57:36.037Z,32.70
2018-07-25T09:59:40.550Z,32.70
2018-07-25T10:01:42.703Z,33.10
2018-07-25T10:03:44.858Z,33.70
2018-07-25T10:05:47.147Z,33.90
2018-07-25T10:07:49.286Z,34.00
2018-07-25T10:09:51.454Z,34.10
2018-07-25T10:11:53.638Z,34.00
2018-07-25T10:13:55.798Z,33.70
2018-07-25T10:15:57.938Z,33.90
2018-07-25T10:18:00.085Z,33.70
2018-07-25T10:20:02.275Z,33.30
2018-07-25T10:22:04.493Z,33.10
2018-07-25T10:24:06.762Z,33.30
2018-07-25T10:26:08.943Z,32.90
2018-07-25T10:28:11.135Z,32.90
2018-07-25T10:30:13.318Z,33.20
2018-07-25T10:32:15.450Z,33.40
2018-07-25T10:34:17.632Z,33.70
2018-07-25T10:36:19.972Z,34.10
2018-07-25T10:38:22.110Z,34.60
2018-07-25T10:40:24.319Z,34.30
2018-07-25T10:42:26.428Z,33.60
2018-07-25T10:44:28.583Z,34.00
2018-07-25T10:46:30.730Z,34.20
2018-07-25T10:48:32.975Z,34.80
2018-07-25T10:50:35.151Z,34.70
2018-07-25T10:52:37.311Z,34.70
2018-07-25T10:54:39.474Z,34.60
2018-07-25T10:56:41.693Z,34.30
2018-07-25T10:58:43.852Z,34.20
2018-07-25T11:00:45.986Z,35.00
2018-07-25T11:02:48.158Z,35.30
2018-07-25T11:04:50.286Z,34.40
2018-07-25T11:06:52.430Z,34.40
2018-07-25T11:08:54.631Z,34.80
2018-07-25T11:10:56.787Z,35.40
2018-07-25T11:12:58.958Z,35.50
2018-07-25T11:15:01.169Z,35.40
2018-07-25T11:17:03.522Z,35.10
2018-07-25T11:19:05.991Z,34.90
2018-07-25T11:21:08.369Z,34.90
2018-07-25T11:23:10.556Z,34.80
2018-07-25T11:25:12.690Z,34.80
2018-07-25T11:27:14.844Z,35.20
2018-07-25T11:29:17.018Z,35.70
2018-07-25T11:31:19.190Z,36.50
2018-07-25T11:33:21.498Z,36.80
2018-07-25T11:35:23.637Z,36.50
2018-07-25T11:37:25.781Z,36.70
2018-07-25T11:39:27.930Z,37.10
2018-07-25T11:41:30.066Z,38.10
2018-07-25T11:43:32.198Z,37.80
2018-07-25T11:45:34.436Z,37.00
2018-07-25T11:47:36.598Z,37.20
2018-07-25T11:49:38.768Z,37.50
2018-07-25T11:51:41.022Z,38.20
2018-07-25T11:53:43.188Z,38.20
2018-07-25T11:55:45.447Z,37.50
2018-07-25T11:57:47.558Z,36.90
2018-07-25T11:59:49.734Z,36.30
2018-07-25T12:01:51.991Z,36.40
2018-07-25T12:03:54.118Z,36.60
2018-07-25T12:05:56.366Z,37.30
2018-07-25T12:07:58.564Z,37.80
2018-07-25T12:10:00.743Z,38.00
2018-07-25T12:12:02.939Z,38.30
2018-07-25T12:14:05.777Z,38.00
2018-07-25T12:16:07.982Z,36.80
2018-07-25T12:18:10.143Z,36.10
2018-07-25T12:20:12.318Z,35.50
2018-07-25T12:22:14.482Z,35.20
2018-07-25T12:24:16.632Z,35.30
2018-07-25T12:26:18.779Z,35.10
2018-07-25T12:28:20.987Z,35.60
2018-07-25T12:30:23.391Z,36.70
2018-07-25T12:32:25.554Z,37.50
2018-07-25T12:34:27.712Z,38.40
2018-07-25T12:36:30.138Z,38.50
2018-07-25T12:38:32.302Z,38.50
2018-07-25T12:40:34.474Z,38.50
2018-07-25T12:42:36.655Z,38.20
2018-07-25T12:44:38.787Z,38.70
2018-07-25T12:46:40.919Z,38.60
2018-07-25T12:48:43.138Z,38.70
2018-07-25T12:50:45.270Z,38.80
2018-07-25T12:52:47.391Z,38.90
2018-07-25T12:54:49.634Z,38.30
2018-07-25T12:56:51.794Z,38.40
2018-07-25T12:58:53.934Z,38.90
2018-07-25T13:00:56.366Z,38.80
2018-07-25T13:02:58.511Z,39.40
2018-07-25T13:05:00.659Z,39.30
2018-07-25T13:07:02.848Z,39.90
2018-07-25T13:09:07.230Z,40.20
2018-07-25T13:11:09.342Z,41.10
2018-07-25T13:13:12.362Z,41.60
2018-07-25T13:15:14.558Z,41.70
2018-07-25T13:17:16.736Z,42.10
2018-07-25T13:19:18.925Z,42.40
2018-07-25T13:21:21.083Z,41.90
2018-07-25T13:23:23.296Z,42.00
2018-07-25T13:25:25.724Z,42.10
2018-07-25T13:27:27.885Z,42.30
2018-07-25T13:29:30.043Z,41.00
2018-07-25T13:31:32.213Z,40.80
2018-07-25T13:33:34.561Z,39.90
2018-07-25T13:35:36.713Z,40.30
2018-07-25T13:37:38.869Z,40.70
2018-07-25T13:39:41.044Z,41.20
2018-07-25T13:41:43.214Z,41.50
2018-07-25T13:43:45.395Z,39.00
2018-07-25T13:45:48.009Z,37.10
2018-07-25T13:47:50.187Z,36.30
2018-07-25T13:49:52.355Z,36.40
2018-07-25T13:51:54.581Z,36.10
2018-07-25T13:53:56.767Z,36.00
2018-07-25T13:55:58.996Z,37.00
2018-07-25T13:58:01.817Z,37.70
2018-07-25T14:00:05.501Z,36.40
2018-07-25T14:02:08.085Z,36.20
2018-07-25T14:04:10.234Z,36.90
2018-07-25T14:06:12.410Z,36.70
2018-07-25T14:08:14.887Z,36.10
2018-07-25T14:10:17.050Z,35.50
2018-07-25T14:12:19.191Z,35.10
2018-07-25T14:14:21.434Z,34.70
2018-07-25T14:16:23.577Z,34.50
2018-07-25T14:18:25.722Z,34.40
2018-07-25T14:20:28.003Z,34.30
2018-07-25T14:22:30.145Z,34.20
2018-07-25T14:24:32.365Z,34.00
2018-07-25T14:26:34.634Z,34.00
2018-07-25T14:28:36.775Z,33.90
2018-07-25T14:30:38.984Z,33.60
2018-07-25T14:32:41.039Z,33.50
2018-07-25T14:34:43.187Z,32.60
2018-07-25T14:36:45.393Z,31.70
2018-07-25T14:38:47.665Z,31.00
2018-07-25T14:40:50.105Z,30.40
2018-07-25T14:42:52.262Z,30.00
2018-07-25T14:44:54.403Z,29.80
2018-07-25T14:46:56.782Z,29.80
2018-07-25T14:48:58.790Z,29.70
2018-07-25T14:51:00.944Z,29.40
2018-07-25T14:53:03.159Z,29.10
2018-07-25T14:55:05.343Z,29.00
2018-07-25T14:57:07.486Z,28.80
2018-07-25T14:59:09.655Z,28.80
2018-07-25T15:01:11.822Z,28.20
2018-07-25T15:03:13.959Z,28.20
2018-07-25T15:05:16.227Z,28.00
2018-07-25T15:07:18.362Z,28.00
2018-07-25T15:09:20.522Z,28.20
2018-07-25T15:11:24.785Z,27.90
2018-07-25T15:13:26.930Z,28.20
2018-07-25T15:15:29.110Z,28.10
2018-07-25T15:17:31.267Z,28.10
2018-07-25T15:19:33.447Z,27.60
2018-07-25T15:21:35.768Z,27.30
2018-07-25T15:23:49.480Z,27.40
2018-07-25T15:25:51.614Z,27.20
2018-07-25T15:27:53.819Z,26.80
2018-07-25T15:29:57.305Z,26.60
2018-07-25T15:31:59.623Z,26.40
2018-07-25T15:34:01.891Z,26.50
2018-07-25T15:36:04.268Z,26.40
2018-07-25T15:38:06.493Z,26.50
2018-07-25T15:40:08.795Z,26.60
2018-07-25T15:42:13.259Z,27.10
2018-07-25T15:44:16.866Z,27.50
2018-07-25T15:46:20.603Z,27.50
2018-07-25T15:48:24.698Z,27.30
2018-07-25T15:50:26.966Z,27.60
2018-07-25T15:52:30.028Z,27.70
2018-07-25T15:54:32.305Z,27.80
2018-07-25T15:56:36.057Z,27.70
2018-07-25T15:58:38.389Z,27.60
2018-07-25T16:00:40.702Z,27.50
2018-07-25T16:02:43.143Z,27.50
2018-07-25T16:04:45.403Z,27.10
2018-07-25T16:06:49.591Z,26.60
2018-07-25T16:08:52.082Z,26.70
2018-07-25T16:10:54.268Z,26.40
2018-07-25T16:12:57.089Z,26.30
2018-07-25T16:15:00.588Z,26.30
2018-07-25T16:17:10.385Z,26.30
2018-07-25T16:19:33.849Z,26.70
2018-07-25T16:21:37.688Z,27.10
2018-07-25T16:23:47.601Z,27.30
2018-07-25T16:25:50.760Z,27.40
2018-07-25T16:27:53.302Z,26.60
2018-07-25T16:29:56.287Z,26.60
2018-07-25T16:31:58.914Z,26.90
2018-07-25T16:34:03.803Z,27.20
2018-07-25T16:36:07.849Z,27.50
2018-07-25T16:38:10.456Z,27.60
2018-07-25T16:40:12.673Z,27.60
2018-07-25T16:42:14.869Z,27.40
2018-07-25T16:44:17.138Z,27.50
2018-07-25T16:46:19.560Z,27.40
2018-07-25T16:48:21.934Z,27.50
2018-07-25T16:50:24.302Z,27.60
2018-07-25T16:52:26.452Z,27.70
2018-07-25T16:54:28.764Z,27.70
2018-07-25T16:56:30.945Z,27.70
2018-07-25T16:58:35.298Z,28.00
2018-07-25T17:00:37.926Z,28.00
2018-07-25T17:02:40.657Z,27.80
2018-07-25T17:04:43.568Z,27.80
2018-07-25T17:06:46.287Z,27.80
2018-07-25T17:08:48.434Z,27.80
2018-07-25T17:10:50.951Z,28.10
2018-07-25T17:12:54.302Z,28.00
2018-07-25T17:14:56.502Z,28.10
2018-07-25T17:17:01.827Z,28.20
2018-07-25T17:19:03.988Z,28.20
2018-07-25T17:21:06.206Z,28.10
2018-07-25T17:23:08.355Z,28.00
2018-07-25T17:25:10.616Z,28.10
2018-07-25T17:27:12.808Z,28.20
2018-07-25T17:29:15.031Z,28.20
2018-07-25T17:31:17.263Z,28.10
2018-07-25T17:33:19.475Z,28.10
2018-07-25T17:35:21.719Z,28.20
2018-07-25T17:37:23.972Z,28.20
2018-07-25T17:39:27.118Z,27.90
2018-07-25T17:41:29.086Z,27.90
2018-07-25T17:43:31.201Z,27.80
2018-07-25T17:45:33.442Z,27.70
2018-07-25T17:47:35.631Z,27.60
2018-07-25T17:49:37.956Z,27.60
2018-07-25T17:51:40.115Z,27.80
2018-07-25T17:53:42.266Z,27.90
2018-07-25T17:55:44.733Z,28.00
2018-07-25T17:57:46.963Z,28.00
2018-07-25T17:59:49.127Z,28.00
2018-07-25T18:01:51.343Z,28.00
2018-07-25T18:03:54.296Z,28.10
2018-07-25T18:05:56.520Z,28.00
2018-07-25T18:07:58.746Z,28.00
2018-07-25T18:10:01.250Z,27.90
2018-07-25T18:12:03.502Z,27.90
2018-07-25T18:14:10.358Z,27.90
2018-07-25T18:16:12.607Z,27.80
2018-07-25T18:18:14.805Z,27.80
2018-07-25T18:20:16.999Z,27.60
2018-07-25T18:22:19.270Z,27.60
2018-07-25T18:24:21.472Z,27.70
2018-07-25T18:26:23.724Z,27.70
2018-07-25T18:28:25.959Z,27.80
2018-07-25T18:30:28.204Z,27.80
2018-07-25T18:32:30.433Z,27.80
2018-07-25T18:34:32.690Z,27.70
2018-07-25T18:36:34.912Z,27.70
2018-07-25T18:38:37.203Z,27.80
2018-07-25T18:40:39.425Z,27.80
2018-07-25T18:42:41.918Z,27.70
2018-07-25T18:44:44.518Z,27.70
2018-07-25T18:46:46.771Z,27.70
2018-07-25T18:48:48.931Z,27.70
2018-07-25T18:50:51.061Z,27.60
2018-07-25T18:52:53.398Z,27.70
2018-07-25T18:54:55.687Z,27.70
2018-07-25T18:56:57.886Z,27.70
2018-07-25T18:59:00.059Z,27.60
2018-07-25T19:01:02.241Z,27.70
2018-07-25T19:03:04.496Z,27.70
2018-07-25T19:05:06.889Z,27.70
2018-07-25T19:07:09.729Z,27.60
2018-07-25T19:09:12.195Z,27.50
2018-07-25T19:11:14.498Z,27.40
2018-07-25T19:13:22.419Z,27.40
2018-07-25T19:15:30.933Z,27.40
2018-07-25T19:17:33.180Z,27.30
2018-07-25T19:19:35.367Z,27.20
2018-07-25T19:21:37.848Z,27.20
2018-07-25T19:23:40.034Z,27.20
2018-07-25T19:25:42.224Z,27.10
2018-07-25T19:27:44.433Z,27.10
2018-07-25T19:29:46.620Z,27.10
2018-07-25T19:31:48.822Z,27.00
2018-07-25T19:33:51.035Z,27.00
2018-07-25T19:35:53.218Z,27.00
2018-07-25T19:37:55.419Z,27.00
2018-07-25T19:39:57.658Z,27.00
2018-07-25T19:41:59.818Z,27.00
2018-07-25T19:44:02.103Z,26.90
2018-07-25T19:46:04.422Z,26.90
2018-07-25T19:48:06.636Z,26.90
2018-07-25T19:50:08.989Z,26.80
2018-07-25T19:52:11.241Z,26.80
2018-07-25T19:54:13.419Z,26.80
2018-07-25T19:56:15.655Z,26.80
2018-07-25T19:58:17.851Z,26.70
2018-07-25T20:00:20.108Z,26.60
2018-07-25T20:02:22.271Z,26.60
2018-07-25T20:04:24.446Z,26.60
2018-07-25T20:06:26.668Z,26.60
2018-07-25T20:08:28.939Z,26.60
2018-07-25T20:10:31.108Z,26.60
2018-07-25T20:12:33.253Z,26.50
2018-07-25T20:14:41.118Z,26.50
2018-07-25T20:16:43.332Z,26.50
2018-07-25T20:18:45.475Z,26.50
2018-07-25T20:20:47.674Z,26.60
2018-07-25T20:22:49.981Z,26.50
2018-07-25T20:24:52.173Z,26.40
2018-07-25T20:26:54.372Z,26.50
2018-07-25T20:28:56.571Z,26.40
2018-07-25T20:30:58.814Z,26.40
2018-07-25T20:33:01.050Z,26.40
2018-07-25T20:35:03.570Z,26.20
2018-07-25T20:37:06.022Z,26.30
2018-07-25T20:39:09.697Z,26.30
2018-07-25T20:41:12.125Z,26.10
2018-07-25T20:43:14.858Z,26.00
2018-07-25T20:45:17.051Z,26.10
2018-07-25T20:47:19.250Z,26.10
2018-07-25T20:49:21.416Z,26.20
2018-07-25T20:51:23.693Z,26.00
2018-07-25T20:53:26.128Z,26.20
2018-07-25T20:55:28.350Z,26.20
2018-07-25T20:57:30.549Z,26.10
2018-07-25T20:59:32.758Z,26.30
2018-07-25T21:01:34.998Z,26.40
2018-07-25T21:03:37.180Z,26.50
2018-07-25T21:05:39.539Z,26.50
2018-07-25T21:07:41.644Z,26.50
2018-07-25T21:09:43.738Z,26.50
2018-07-25T21:11:45.946Z,26.50
2018-07-25T21:13:48.038Z,26.50
2018-07-25T21:15:50.531Z,26.50
2018-07-25T21:17:52.983Z,26.40
2018-07-25T21:19:55.172Z,26.20
2018-07-25T21:21:57.501Z,26.20
2018-07-25T21:23:59.682Z,26.30
2018-07-25T21:26:01.835Z,26.30
2018-07-25T21:28:04.067Z,26.30
2018-07-25T21:30:06.332Z,26.30
2018-07-25T21:32:08.519Z,26.30
2018-07-25T21:34:10.730Z,26.30
2018-07-25T21:36:12.934Z,26.20
2018-07-25T21:38:15.124Z,26.20
2018-07-25T21:40:17.246Z,26.10
2018-07-25T21:42:19.399Z,26.00
2018-07-25T21:44:21.478Z,26.10
2018-07-25T21:46:23.595Z,26.10
2018-07-25T21:48:26.268Z,25.90
2018-07-25T21:50:28.434Z,25.80
2018-07-25T21:52:30.751Z,25.80
2018-07-25T21:54:32.921Z,25.70
2018-07-25T21:56:35.145Z,25.70
2018-07-25T21:58:37.336Z,25.70
2018-07-25T22:00:44.162Z,25.60
2018-07-25T22:02:47.039Z,25.60
2018-07-25T22:04:49.479Z,25.60
2018-07-25T22:06:51.597Z,25.60
2018-07-25T22:08:53.749Z,25.60
2018-07-25T22:10:55.842Z,25.70
2018-07-25T22:12:57.968Z,25.60
2018-07-25T22:15:00.723Z,25.60
2018-07-25T22:17:02.923Z,25.70
2018-07-25T22:19:05.139Z,25.60
2018-07-25T22:21:07.334Z,25.50
2018-07-25T22:23:09.519Z,25.40
2018-07-25T22:25:11.708Z,25.40
2018-07-25T22:27:13.908Z,25.40
2018-07-25T22:29:16.111Z,25.50
2018-07-25T22:31:18.286Z,25.40
2018-07-25T22:33:20.467Z,25.20
2018-07-25T22:35:22.672Z,25.30
2018-07-25T22:37:24.819Z,25.30
2018-07-25T22:39:26.935Z,25.30
2018-07-25T22:41:29.070Z,25.30
2018-07-25T22:43:31.270Z,25.30
2018-07-25T22:45:33.381Z,25.20
2018-07-25T22:47:36.319Z,25.30
2018-07-25T22:49:38.491Z,25.20
2018-07-25T22:51:40.695Z,25.20
2018-07-25T22:53:43.051Z,25.20
2018-07-25T22:55:45.339Z,25.10
2018-07-25T22:57:47.523Z,25.10
2018-07-25T22:59:49.722Z,25.10
2018-07-25T23:01:52.395Z,25.20
2018-07-25T23:03:54.571Z,25.10
2018-07-25T23:05:56.794Z,25.10
2018-07-25T23:07:59.006Z,25.10
2018-07-25T23:10:01.229Z,25.00
2018-07-25T23:12:03.394Z,25.10
2018-07-25T23:14:05.523Z,25.30
2018-07-25T23:16:07.686Z,25.20
2018-07-25T23:18:10.996Z,25.20
2018-07-25T23:20:13.215Z,25.20
2018-07-25T23:22:15.415Z,25.00
2018-07-25T23:24:17.630Z,25.10
2018-07-25T23:26:19.842Z,24.90
2018-07-25T23:28:22.022Z,25.00
2018-07-25T23:30:25.095Z,25.00
2018-07-25T23:32:27.319Z,24.80
2018-07-25T23:34:29.559Z,24.40
2018-07-25T23:36:31.816Z,24.40
2018-07-25T23:38:34.011Z,24.10
2018-07-25T23:40:36.131Z,24.00
2018-07-25T23:42:38.261Z,24.10
2018-07-25T23:44:40.421Z,24.00
2018-07-25T23:46:42.530Z,24.10
2018-07-25T23:48:45.168Z,24.10
2018-07-25T23:50:47.350Z,24.10
2018-07-25T23:52:49.555Z,24.10
2018-07-25T23:54:51.766Z,24.10
2018-07-25T23:57:00.712Z,24.20
2018-07-25T23:59:02.933Z,24.20
